Time;durP1;ratioP1;P1;durP2;ratioP2;P2;SDS_P1;SDS_P2;PMS_P1;PMS_P2;Temp;Humidity;BMP_temperature;BMP_pressure;BME280_temperature;BME280_humidity;BME280_pressure;Samples;Min_cycle;Max_cycle;Signal;HPM_P1;HPM_P2
2021/03/12 00:02:16;;;;;;;19.40;3.30;;;7.40;90.70;;;;;;4373690;32;20171;-65
2021/03/12 00:04:43;;;;;;;13.67;3.23;;;7.40;90.60;;;;;;4375441;32;20223;-62
2021/03/12 00:07:10;;;;;;;17.77;3.33;;;7.40;90.70;;;;;;4373143;32;20250;-63
2021/03/12 00:09:36;;;;;;;17.40;3.03;;;7.40;90.60;;;;;;4368141;32;20176;-64
2021/03/12 00:12:03;;;;;;;20.20;3.27;;;7.40;90.70;;;;;;4362020;32;20183;-63
2021/03/12 00:14:30;;;;;;;15.20;3.90;;;7.40;90.90;;;;;;4365305;32;20169;-65
2021/03/12 00:16:56;;;;;;;13.57;3.70;;;7.40;90.70;;;;;;4374216;32;20176;-63
2021/03/12 00:19:22;;;;;;;15.67;3.37;;;7.40;90.70;;;;;;4370637;32;20157;-62
2021/03/12 00:21:50;;;;;;;15.13;3.20;;;7.40;90.70;;;;;;4367093;32;20210;-63
2021/03/12 00:24:16;;;;;;;20.10;3.73;;;7.50;90.80;;;;;;4375132;32;20179;-65
2021/03/12 00:26:42;;;;;;;14.27;3.27;;;7.40;90.90;;;;;;4360918;32;20238;-63
2021/03/12 00:29:09;;;;;;;11.07;3.00;;;7.40;90.70;;;;;;4370535;32;20195;-66
2021/03/12 00:31:35;;;;;;;17.23;3.00;;;7.40;90.90;;;;;;4365135;32;20179;-63
2021/03/12 00:34:01;;;;;;;15.37;3.13;;;7.40;90.60;;;;;;4374902;32;20601;-63
2021/03/12 00:36:28;;;;;;;19.03;3.53;;;7.40;90.40;;;;;;4365134;32;20164;-66
2021/03/12 00:38:55;;;;;;;15.90;3.30;;;7.40;90.50;;;;;;4369191;32;20181;-63
2021/03/12 00:41:21;;;;;;;21.00;3.10;;;7.30;90.60;;;;;;4365130;32;20490;-63
2021/03/12 00:43:47;;;;;;;13.70;3.47;;;7.20;90.70;;;;;;4376044;32;20184;-64
2021/03/12 00:46:14;;;;;;;15.87;2.90;;;7.20;90.80;;;;;;4370688;32;20194;-64
2021/03/12 00:48:40;;;;;;;16.17;3.20;;;7.30;90.90;;;;;;4374829;32;20561;-65
2021/03/12 00:51:07;;;;;;;16.10;3.20;;;7.30;90.60;;;;;;4375827;32;20224;-68
2021/03/12 00:53:33;;;;;;;17.80;3.23;;;7.30;90.40;;;;;;4375381;32;20198;-64
2021/03/12 00:56:01;;;;;;;10.43;2.70;;;7.40;90.10;;;;;;4373920;32;20249;-64
2021/03/12 00:58:27;;;;;;;11.83;2.67;;;7.40;89.60;;;;;;4371667;32;20161;-63
2021/03/12 01:00:56;;;;;;;14.00;2.67;;;7.40;89.50;;;;;;4373419;32;20164;-67
2021/03/12 01:03:23;;;;;;;8.53;2.30;;;7.50;89.90;;;;;;4374826;32;20179;-66
2021/03/12 01:05:49;;;;;;;11.03;2.43;;;7.40;89.50;;;;;;4374332;32;20249;-64
2021/03/12 01:08:16;;;;;;;14.73;3.27;;;7.40;89.90;;;;;;4363856;32;20220;-64
2021/03/12 01:10:42;;;;;;;10.53;2.20;;;7.40;89.60;;;;;;4374732;32;20199;-64
2021/03/12 01:13:10;;;;;;;7.77;2.27;;;7.40;89.80;;;;;;4365663;32;20165;-64
2021/03/12 01:15:36;;;;;;;13.57;2.67;;;7.40;89.30;;;;;;4369520;32;20213;-64
2021/03/12 01:18:03;;;;;;;11.60;2.57;;;7.40;88.90;;;;;;4369476;32;20208;-64
2021/03/12 01:20:32;;;;;;;8.63;1.93;;;7.30;88.40;;;;;;4365552;32;20248;-64
2021/03/12 01:23:02;;;;;;;13.27;2.60;;;7.20;89.00;;;;;;4370514;32;20173;-64
2021/03/12 01:25:30;;;;;;;13.47;2.57;;;7.20;89.10;;;;;;4364561;32;20179;-68
2021/03/12 01:27:57;;;;;;;12.03;2.73;;;7.10;89.10;;;;;;4373227;32;20160;-64
2021/03/12 01:30:27;;;;;;;9.00;1.97;;;7.10;89.20;;;;;;4373431;32;20160;-64
2021/03/12 01:32:53;;;;;;;13.77;2.70;;;6.90;89.40;;;;;;4373628;32;20235;-64
2021/03/12 01:35:20;;;;;;;11.23;2.53;;;6.90;89.20;;;;;;4369078;32;20607;-63
2021/03/12 01:37:46;;;;;;;16.53;2.90;;;7.00;89.20;;;;;;4373234;32;20168;-65
2021/03/12 01:40:15;;;;;;;13.10;3.20;;;7.00;89.30;;;;;;4372881;32;20187;-65
2021/03/12 01:42:41;;;;;;;10.57;2.70;;;7.00;89.30;;;;;;4370322;32;20176;-64
2021/03/12 01:45:10;;;;;;;10.60;3.00;;;7.10;89.50;;;;;;4373924;32;20168;-65
2021/03/12 01:47:37;;;;;;;13.60;3.73;;;7.10;89.80;;;;;;4372676;32;20191;-66
2021/03/12 01:50:05;;;;;;;13.10;3.57;;;7.10;89.90;;;;;;4367364;32;20173;-66
2021/03/12 01:52:32;;;;;;;13.67;3.27;;;7.10;90.00;;;;;;4369145;32;20156;-64
2021/03/12 01:54:58;;;;;;;18.40;3.57;;;7.20;90.10;;;;;;4369962;32;20227;-63
2021/03/12 01:57:28;;;;;;;19.63;3.83;;;7.10;90.40;;;;;;4364072;32;20157;-67
2021/03/12 01:59:54;;;;;;;20.17;3.87;;;7.10;90.50;;;;;;4367847;32;20172;-64
2021/03/12 02:02:21;;;;;;;19.47;4.33;;;7.10;90.60;;;;;;4370859;32;20160;-64
2021/03/12 02:04:48;;;;;;;15.13;3.60;;;7.10;90.60;;;;;;4372029;32;20190;-64
2021/03/12 02:07:14;;;;;;;19.00;3.87;;;7.10;90.50;;;;;;4372720;32;20224;-63
2021/03/12 02:09:41;;;;;;;20.90;4.17;;;7.10;90.60;;;;;;4375711;32;20252;-64
2021/03/12 02:12:14;;;;;;;21.67;3.77;;;7.10;90.70;;;;;;4372927;32;20160;-65
2021/03/12 02:14:46;;;;;;;21.00;3.67;;;7.10;90.70;;;;;;4367736;32;20600;-65
2021/03/12 02:17:16;;;;;;;23.73;3.93;;;7.00;90.70;;;;;;4363933;32;20157;-64
2021/03/12 02:19:56;;;;;;;19.13;3.40;;;7.00;90.40;;;;;;4369257;32;20183;-62
2021/03/12 02:22:24;;;;;;;10.87;3.43;;;7.00;90.50;;;;;;4370511;32;20160;-65
2021/03/12 02:25:06;;;;;;;16.87;4.33;;;6.90;90.60;;;;;;4374230;32;20276;-64
2021/03/12 02:27:34;;;;;;;16.87;3.73;;;6.80;90.80;;;;;;4376313;32;20573;-63
2021/03/12 02:30:05;;;;;;;18.40;4.10;;;6.80;90.80;;;;;;4372497;32;20212;-66
2021/03/12 02:32:35;;;;;;;20.97;3.57;;;6.80;90.90;;;;;;4375202;32;20172;-63
2021/03/12 02:35:06;;;;;;;12.17;3.17;;;6.80;90.80;;;;;;4376074;32;20174;-65
2021/03/12 02:37:33;;;;;;;20.83;3.17;;;6.80;90.70;;;;;;4377107;32;20176;-61
2021/03/12 02:40:00;;;;;;;22.47;3.90;;;7.00;90.70;;;;;;4377122;32;20191;-66
2021/03/12 02:42:28;;;;;;;16.27;4.10;;;6.90;90.60;;;;;;4374788;32;20160;-67
2021/03/12 02:44:59;;;;;;;13.90;3.27;;;6.90;90.60;;;;;;4376916;32;20172;-65
2021/03/12 02:47:28;;;;;;;16.47;3.87;;;7.00;90.60;;;;;;4375437;32;20167;-63
2021/03/12 02:49:55;;;;;;;16.70;3.60;;;7.00;90.40;;;;;;4376191;32;20593;-63
2021/03/12 02:52:22;;;;;;;10.17;2.93;;;6.80;90.50;;;;;;4376389;32;20157;-62
2021/03/12 02:54:49;;;;;;;16.60;4.07;;;6.80;90.60;;;;;;4374813;32;20651;-66
2021/03/12 02:57:18;;;;;;;14.80;2.77;;;6.80;90.70;;;;;;4376666;32;20161;-64
2021/03/12 02:59:46;;;;;;;20.60;4.80;;;6.70;90.80;;;;;;4368560;32;20144;-66
2021/03/12 03:02:14;;;;;;;21.20;3.60;;;6.70;90.90;;;;;;4375385;32;20160;-66
2021/03/12 03:04:41;;;;;;;22.13;4.40;;;6.60;90.90;;;;;;4363889;32;20515;-62
2021/03/12 03:07:08;;;;;;;20.90;3.83;;;6.60;91.00;;;;;;4366984;32;20212;-65
2021/03/12 03:09:36;;;;;;;11.43;2.93;;;6.50;91.20;;;;;;4365663;32;20224;-67
2021/03/12 03:12:02;;;;;;;17.27;4.07;;;6.30;91.40;;;;;;4371144;32;20190;-62
2021/03/12 03:14:30;;;;;;;19.53;4.07;;;6.20;91.60;;;;;;4375244;32;20171;-63
2021/03/12 03:16:59;;;;;;;15.80;3.30;;;6.10;91.80;;;;;;4375378;32;20267;-63
2021/03/12 03:19:27;;;;;;;17.43;3.10;;;6.10;92.00;;;;;;4372331;32;20650;-63
2021/03/12 03:21:57;;;;;;;19.83;3.63;;;6.00;92.10;;;;;;4371005;32;20175;-65
2021/03/12 03:24:23;;;;;;;17.80;3.37;;;5.90;92.30;;;;;;4370138;32;20184;-63
2021/03/12 03:26:50;;;;;;;21.00;3.50;;;5.90;92.40;;;;;;4361013;32;20659;-67
2021/03/12 03:29:16;;;;;;;20.90;3.17;;;5.80;92.50;;;;;;4375727;32;20306;-62
2021/03/12 03:31:42;;;;;;;21.70;3.70;;;5.80;92.50;;;;;;4375280;32;20187;-62
2021/03/12 03:34:09;;;;;;;16.17;3.47;;;5.70;92.60;;;;;;4374323;32;20182;-62
2021/03/12 03:36:36;;;;;;;14.77;3.47;;;5.70;92.70;;;;;;4374672;32;20207;-62
2021/03/12 03:39:06;;;;;;;20.73;3.60;;;5.70;92.60;;;;;;4374610;32;20244;-62
2021/03/12 03:41:33;;;;;;;17.87;3.17;;;5.70;92.60;;;;;;4377475;32;20156;-62
2021/03/12 03:43:59;;;;;;;13.30;3.07;;;5.60;92.70;;;;;;4372583;32;20229;-63
2021/03/12 03:46:26;;;;;;;17.97;3.83;;;5.60;92.80;;;;;;4367186;32;20551;-62
2021/03/12 03:48:54;;;;;;;15.90;3.13;;;5.60;92.70;;;;;;4371793;32;20191;-62
2021/03/12 03:51:21;;;;;;;13.43;3.13;;;5.50;93.00;;;;;;4374787;32;20696;-63
2021/03/12 03:53:49;;;;;;;15.97;3.67;;;5.50;93.10;;;;;;4376321;32;20172;-63
2021/03/12 03:56:18;;;;;;;12.37;3.03;;;5.50;93.00;;;;;;4375655;32;20262;-63
2021/03/12 03:58:45;;;;;;;16.33;3.73;;;5.50;93.00;;;;;;4368991;32;20524;-63
2021/03/12 04:01:13;;;;;;;12.63;3.23;;;5.40;93.20;;;;;;4371367;32;20634;-63
2021/03/12 04:03:41;;;;;;;14.10;3.43;;;5.40;93.20;;;;;;4365764;32;20188;-66
2021/03/12 04:06:07;;;;;;;14.53;3.17;;;5.40;93.20;;;;;;4365717;32;20212;-67
2021/03/12 04:08:35;;;;;;;15.97;4.50;;;5.30;93.30;;;;;;4368812;32;20455;-65
2021/03/12 04:11:02;;;;;;;11.43;2.90;;;5.20;93.60;;;;;;4372567;32;20216;-64
2021/03/12 04:13:31;;;;;;;15.80;3.00;;;5.20;93.90;;;;;;4373408;32;20662;-64
2021/03/12 04:15:57;;;;;;;19.73;3.10;;;5.20;94.00;;;;;;4372659;32;20180;-64
2021/03/12 04:18:28;;;;;;;18.83;3.60;;;5.20;94.20;;;;;;4362222;32;20180;-66
2021/03/12 04:20:54;;;;;;;16.63;2.93;;;5.10;94.30;;;;;;4375155;32;20168;-66
2021/03/12 04:23:21;;;;;;;19.13;4.73;;;5.10;94.40;;;;;;4375025;32;20510;-65
2021/03/12 04:25:50;;;;;;;19.27;3.37;;;5.10;94.40;;;;;;4374475;32;20612;-63
2021/03/12 04:28:17;;;;;;;20.70;3.63;;;5.10;94.50;;;;;;4366011;32;20610;-65
2021/03/12 04:30:44;;;;;;;19.20;3.33;;;5.10;94.40;;;;;;4369839;32;20219;-65
2021/03/12 04:33:11;;;;;;;16.80;3.67;;;5.10;94.50;;;;;;4371181;32;20266;-66
2021/03/12 04:35:37;;;;;;;18.30;4.07;;;5.10;94.50;;;;;;4374748;32;20261;-64
2021/03/12 04:38:06;;;;;;;16.97;3.80;;;5.10;94.40;;;;;;4374814;32;20180;-64
2021/03/12 04:40:33;;;;;;;16.73;3.10;;;5.10;94.40;;;;;;4367218;32;20205;-63
2021/03/12 04:42:59;;;;;;;20.87;3.30;;;5.10;94.40;;;;;;4375043;32;20569;-63
2021/03/12 04:45:27;;;;;;;14.00;3.80;;;5.10;94.40;;;;;;4365567;32;20207;-63
2021/03/12 04:47:56;;;;;;;26.60;4.03;;;5.10;94.30;;;;;;4375029;32;20176;-63
2021/03/12 04:50:25;;;;;;;17.80;4.20;;;5.10;94.40;;;;;;4373757;32;20149;-62
2021/03/12 04:52:54;;;;;;;14.97;3.43;;;5.10;94.60;;;;;;4374370;32;20222;-62
2021/03/12 04:55:20;;;;;;;16.90;3.00;;;5.10;94.50;;;;;;4374712;32;20204;-62
2021/03/12 04:57:47;;;;;;;18.67;3.60;;;5.10;94.50;;;;;;4374275;32;20316;-63
2021/03/12 05:00:14;;;;;;;17.20;4.17;;;5.10;94.40;;;;;;4369964;32;20178;-62
2021/03/12 05:02:42;;;;;;;8.93;2.33;;;5.20;94.50;;;;;;4366506;32;20274;-63
2021/03/12 05:05:10;;;;;;;11.50;2.40;;;5.20;94.40;;;;;;4374472;32;20178;-62
2021/03/12 05:07:38;;;;;;;14.43;3.23;;;5.20;94.50;;;;;;4373085;32;20166;-62
2021/03/12 05:10:07;;;;;;;22.57;3.10;;;5.20;94.50;;;;;;4367569;32;20511;-62
2021/03/12 05:12:35;;;;;;;13.30;2.70;;;5.20;94.40;;;;;;4368466;32;20206;-64
2021/03/12 05:15:01;;;;;;;12.40;3.27;;;5.20;94.30;;;;;;4369514;32;20688;-62
2021/03/12 05:17:28;;;;;;;17.30;3.13;;;5.20;94.30;;;;;;4371662;32;20220;-63
2021/03/12 05:19:55;;;;;;;18.23;3.23;;;5.20;94.30;;;;;;4375257;32;20167;-62
2021/03/12 05:22:22;;;;;;;18.57;3.20;;;5.10;94.40;;;;;;4374604;32;20221;-64
2021/03/12 05:24:48;;;;;;;15.67;3.30;;;5.10;94.30;;;;;;4370474;32;20176;-63
2021/03/12 05:27:15;;;;;;;17.03;3.30;;;5.20;94.30;;;;;;4375320;32;20704;-63
2021/03/12 05:29:41;;;;;;;16.20;3.33;;;5.10;94.40;;;;;;4370770;32;20228;-64
2021/03/12 05:32:07;;;;;;;13.83;3.10;;;5.10;94.30;;;;;;4368297;32;20271;-64
2021/03/12 05:34:34;;;;;;;17.30;3.53;;;5.10;94.30;;;;;;4374409;32;20642;-61
2021/03/12 05:37:01;;;;;;;15.00;2.57;;;5.10;94.40;;;;;;4374585;32;20290;-66
2021/03/12 05:39:27;;;;;;;13.37;2.67;;;5.20;94.20;;;;;;4375858;32;20213;-64
2021/03/12 05:41:54;;;;;;;20.33;3.53;;;5.20;94.40;;;;;;4372548;32;20565;-65
2021/03/12 05:44:21;;;;;;;16.33;2.70;;;5.20;94.40;;;;;;4374606;32;20280;-62
2021/03/12 05:46:47;;;;;;;13.37;2.60;;;5.20;94.40;;;;;;4363886;32;20315;-62
2021/03/12 05:49:16;;;;;;;14.37;2.77;;;5.10;94.40;;;;;;4360268;32;20212;-63
2021/03/12 05:51:42;;;;;;;14.87;3.70;;;5.10;94.40;;;;;;4364226;32;20435;-63
2021/03/12 05:54:10;;;;;;;12.27;2.93;;;5.20;94.40;;;;;;4360471;32;20173;-63
2021/03/12 05:56:40;;;;;;;15.57;3.93;;;5.20;94.50;;;;;;4363246;32;20212;-63
2021/03/12 05:59:06;;;;;;;21.00;3.93;;;5.20;94.30;;;;;;4367657;32;20215;-63
2021/03/12 06:01:33;;;;;;;18.53;3.00;;;5.10;94.30;;;;;;4373227;32;20235;-63
2021/03/12 06:03:59;;;;;;;20.37;2.90;;;5.10;94.40;;;;;;4366334;32;20199;-63
2021/03/12 06:06:26;;;;;;;14.93;3.57;;;5.10;94.40;;;;;;4363007;32;20192;-62
2021/03/12 06:08:52;;;;;;;20.27;3.47;;;5.10;94.40;;;;;;4361378;32;20174;-63
2021/03/12 06:11:20;;;;;;;11.67;2.77;;;5.10;94.50;;;;;;4366488;32;20207;-63
2021/03/12 06:13:50;;;;;;;16.97;3.30;;;5.10;94.40;;;;;;4357619;32;20179;-62
2021/03/12 06:16:26;;;;;;;14.80;2.93;;;5.10;94.60;;;;;;4373061;32;20164;-66
2021/03/12 06:19:13;;;;;;;14.13;3.07;;;5.10;94.50;;;;;;4364419;32;20156;-64
2021/03/12 06:21:39;;;;;;;19.10;4.07;;;5.10;94.40;;;;;;4364381;32;20307;-66
2021/03/12 06:24:21;;;;;;;20.53;3.83;;;5.20;94.50;;;;;;4363072;32;20177;-66
2021/03/12 06:26:48;;;;;;;15.00;3.37;;;5.20;94.50;;;;;;4362155;32;20218;-64
2021/03/12 06:29:15;;;;;;;16.87;3.47;;;5.30;94.30;;;;;;4362394;32;20171;-64
2021/03/12 06:31:50;;;;;;;16.63;2.97;;;5.30;94.20;;;;;;4363404;32;20254;-67
2021/03/12 06:34:17;;;;;;;12.40;3.43;;;5.40;94.10;;;;;;4360014;32;20160;-66
2021/03/12 06:36:43;;;;;;;17.03;3.80;;;5.40;93.90;;;;;;4362234;32;20594;-64
2021/03/12 06:39:10;;;;;;;14.57;3.10;;;5.50;93.70;;;;;;4359664;32;20569;-64
2021/03/12 06:41:38;;;;;;;10.30;2.93;;;5.50;93.60;;;;;;4359850;32;20204;-67
2021/03/12 06:44:31;;;;;;;20.47;4.20;;;5.50;93.50;;;;;;4359544;32;20462;-63
2021/03/12 06:46:58;;;;;;;17.57;3.70;;;5.60;93.40;;;;;;4371035;32;20222;-66
2021/03/12 06:49:26;;;;;;;18.90;3.70;;;5.70;93.10;;;;;;4371058;32;20184;-67
2021/03/12 06:51:57;;;;;;;16.67;3.37;;;5.80;93.00;;;;;;4373519;32;20230;-66
2021/03/12 06:54:24;;;;;;;12.80;3.47;;;6.00;92.80;;;;;;4375491;32;22256;-64
2021/03/12 06:56:50;;;;;;;16.67;3.63;;;6.00;92.50;;;;;;4376543;32;20195;-67
2021/03/12 06:59:26;;;;;;;21.80;4.50;;;6.00;92.40;;;;;;4375777;32;20220;-66
2021/03/12 07:01:58;;;;;;;17.37;3.50;;;6.10;92.10;;;;;;4375060;32;20507;-66
2021/03/12 07:04:26;;;;;;;20.27;3.87;;;6.20;92.00;;;;;;4374211;32;20204;-66
2021/03/12 07:06:53;;;;;;;19.00;4.20;;;6.30;91.90;;;;;;4372936;32;20493;-68
2021/03/12 07:09:20;;;;;;;12.67;2.93;;;6.40;91.60;;;;;;4375414;32;20302;-66
2021/03/12 07:11:53;;;;;;;18.87;3.53;;;6.50;91.50;;;;;;4375951;32;20179;-66
2021/03/12 07:14:20;;;;;;;18.10;3.33;;;6.50;91.20;;;;;;4374322;32;20175;-64
2021/03/12 07:16:47;;;;;;;16.87;3.40;;;6.50;91.30;;;;;;4375930;32;20152;-67
2021/03/12 07:19:15;;;;;;;16.77;4.00;;;6.60;91.20;;;;;;4375794;32;20581;-64
2021/03/12 07:21:42;;;;;;;20.73;4.27;;;6.60;91.20;;;;;;4367355;32;20175;-63
2021/03/12 07:24:11;;;;;;;26.50;4.17;;;6.60;91.30;;;;;;4373470;32;20584;-61
2021/03/12 07:26:44;;;;;;;25.63;4.13;;;6.50;91.20;;;;;;4374968;32;20175;-64
2021/03/12 07:29:12;;;;;;;25.63;5.07;;;6.40;91.50;;;;;;4374513;32;20657;-65
2021/03/12 07:31:41;;;;;;;19.33;4.13;;;6.40;91.60;;;;;;4374264;32;20209;-64
2021/03/12 07:34:11;;;;;;;24.93;4.67;;;6.40;91.70;;;;;;4376185;32;20608;-64
2021/03/12 07:36:45;;;;;;;26.30;4.90;;;6.50;91.60;;;;;;4376002;32;20187;-64
2021/03/12 07:39:15;;;;;;;22.40;3.93;;;6.50;91.80;;;;;;4375249;32;20191;-64
2021/03/12 07:41:42;;;;;;;25.03;4.70;;;6.50;91.80;;;;;;4376326;32;20519;-64
2021/03/12 07:44:12;;;;;;;20.37;5.03;;;6.60;91.80;;;;;;4375957;32;20223;-66
2021/03/12 07:46:39;;;;;;;18.27;3.53;;;6.70;91.60;;;;;;4375516;32;20216;-63
2021/03/12 07:49:33;;;;;;;25.33;5.00;;;6.80;91.50;;;;;;4375743;32;20242;-63
2021/03/12 07:52:02;;;;;;;21.03;4.90;;;7.00;91.20;;;;;;4372382;32;20277;-67
2021/03/12 07:54:49;;;;;;;17.80;4.67;;;7.20;90.90;;;;;;4375489;32;20185;-64
2021/03/12 07:57:37;;;;;;;19.30;4.60;;;7.30;90.80;;;;;;4296671;33;20523;-64
2021/03/12 08:00:05;;;;;;;21.27;4.73;;;7.50;90.60;;;;;;4297431;33;20224;-65
2021/03/12 08:02:54;;;;;;;15.97;4.20;;;7.70;90.40;;;;;;4293657;33;20170;-63
2021/03/12 08:05:32;;;;;;;29.30;4.83;;;7.80;90.10;;;;;;4299004;33;20197;-64
2021/03/12 08:08:00;;;;;;;26.03;4.07;;;7.70;90.00;;;;;;4299980;33;20188;-64
2021/03/12 08:10:26;;;;;;;22.10;4.27;;;7.70;90.10;;;;;;4299202;33;20168;-64
2021/03/12 08:12:52;;;;;;;29.17;5.97;;;7.90;90.10;;;;;;4299326;33;20177;-64
2021/03/12 08:15:21;;;;;;;22.47;4.90;;;8.30;89.00;;;;;;4299767;33;20162;-64
2021/03/12 08:18:23;;;;;;;24.97;5.47;;;8.70;88.20;;;;;;4301144;33;20614;-66
2021/03/12 08:20:49;;;;;;;17.23;4.13;;;9.20;85.50;;;;;;4299374;33;20169;-65
2021/03/12 08:23:30;;;;;;;21.27;4.37;;;9.30;85.30;;;;;;4289124;33;20222;-63
2021/03/12 08:25:56;;;;;;;22.90;4.80;;;9.40;84.90;;;;;;4294484;33;20504;-64
2021/03/12 08:28:28;;;;;;;20.50;4.87;;;9.70;84.00;;;;;;4300200;33;20239;-63
2021/03/12 08:30:55;;;;;;;20.43;4.77;;;10.30;81.40;;;;;;4298822;33;20184;-64
2021/03/12 08:33:33;;;;;;;27.53;4.47;;;10.50;80.40;;;;;;4310288;32;20170;-63
2021/03/12 08:36:00;;;;;;;23.20;4.90;;;10.40;79.70;;;;;;4369588;32;20155;-67
2021/03/12 08:38:41;;;;;;;20.37;4.50;;;9.80;81.30;;;;;;4375527;32;20238;-63
2021/03/12 08:41:13;;;;;;;17.10;4.90;;;9.20;83.60;;;;;;4373126;32;20157;-65
2021/03/12 08:43:45;;;;;;;29.47;5.20;;;9.10;84.50;;;;;;4333475;32;1172618;-65
2021/03/12 08:46:15;;;;;;;17.97;4.97;;;9.40;84.10;;;;;;4372870;32;20156;-66
2021/03/12 08:48:42;;;;;;;22.43;5.63;;;10.10;82.20;;;;;;4374259;32;20263;-68
2021/03/12 08:51:12;;;;;;;22.83;5.23;;;10.40;80.00;;;;;;4372269;32;20208;-64
2021/03/12 08:53:44;;;;;;;22.20;4.53;;;10.10;80.30;;;;;;4373963;32;20167;-65
2021/03/12 08:56:11;;;;;;;24.77;4.33;;;9.70;81.10;;;;;;4373884;32;20224;-63
2021/03/12 08:58:38;;;;;;;23.80;4.60;;;9.60;82.50;;;;;;4374596;32;20208;-65
2021/03/12 09:01:09;;;;;;;28.83;4.87;;;9.70;81.40;;;;;;4374714;32;20168;-68
2021/03/12 09:03:36;;;;;;;25.27;4.87;;;9.80;81.90;;;;;;4372166;32;20209;-65
2021/03/12 09:06:04;;;;;;;19.83;4.10;;;10.00;81.00;;;;;;4368380;32;20240;-66
2021/03/12 09:08:32;;;;;;;18.73;5.20;;;10.10;80.20;;;;;;4371178;32;20175;-64
2021/03/12 09:11:00;;;;;;;21.63;4.20;;;9.50;81.60;;;;;;4373587;32;20164;-64
2021/03/12 09:13:28;;;;;;;20.00;4.97;;;9.30;82.70;;;;;;4375057;32;20168;-64
2021/03/12 09:15:55;;;;;;;21.70;4.87;;;9.20;83.60;;;;;;4373008;32;20156;-65
2021/03/12 09:18:23;;;;;;;22.93;5.07;;;9.00;84.80;;;;;;4371906;32;20577;-64
2021/03/12 09:20:52;;;;;;;25.13;5.33;;;9.10;85.40;;;;;;4374534;32;20546;-65
2021/03/12 09:23:19;;;;;;;23.43;5.30;;;9.40;83.60;;;;;;4369048;32;20593;-68
2021/03/12 09:25:45;;;;;;;21.50;5.47;;;9.70;83.00;;;;;;4372718;32;20231;-64
2021/03/12 09:28:14;;;;;;;25.00;4.83;;;10.10;82.70;;;;;;4372520;32;20295;-65
2021/03/12 09:30:43;;;;;;;18.43;5.40;;;10.20;80.80;;;;;;4376739;32;20191;-66
2021/03/12 09:33:25;;;;;;;30.27;6.03;;;9.80;81.50;;;;;;4378362;32;20163;-65
2021/03/12 09:35:52;;;;;;;19.67;5.10;;;9.70;82.30;;;;;;4378639;32;20234;-64
2021/03/12 09:38:27;;;;;;;21.20;5.00;;;9.60;83.10;;;;;;4373038;32;20291;-65
2021/03/12 09:40:54;;;;;;;21.67;6.27;;;9.50;83.20;;;;;;4376871;32;20298;-64
2021/03/12 09:43:21;;;;;;;19.90;6.03;;;9.50;83.50;;;;;;4368355;32;20212;-64
2021/03/12 09:45:48;;;;;;;28.20;6.13;;;9.60;83.30;;;;;;4367453;32;20156;-66
2021/03/12 09:48:15;;;;;;;19.70;5.47;;;9.60;83.40;;;;;;4372518;32;20187;-66
2021/03/12 09:50:42;;;;;;;26.17;5.50;;;9.40;84.00;;;;;;4375956;32;20691;-66
2021/03/12 09:53:09;;;;;;;29.07;5.50;;;9.40;84.50;;;;;;4376506;32;20168;-68
2021/03/12 09:55:37;;;;;;;23.63;5.73;;;9.30;84.30;;;;;;4376890;32;20263;-69
2021/03/12 09:58:07;;;;;;;25.13;5.63;;;9.40;85.00;;;;;;4369875;32;20164;-68
2021/03/12 10:00:34;;;;;;;21.97;5.83;;;9.30;85.30;;;;;;4372867;32;20157;-68
2021/03/12 10:03:00;;;;;;;18.20;5.57;;;8.80;88.30;;;;;;4374406;32;20180;-66
2021/03/12 10:05:27;;;;;;;18.50;5.80;;;8.30;90.90;;;;;;4372758;32;20214;-70
2021/03/12 10:07:54;;;;;;;17.23;5.07;;;7.90;92.20;;;;;;4377183;32;20168;-68
2021/03/12 10:10:26;;;;;;;19.63;5.60;;;7.70;93.30;;;;;;4376303;32;20160;-69
2021/03/12 10:12:54;;;;;;;27.40;6.23;;;7.40;93.80;;;;;;4376563;32;20168;-66
2021/03/12 10:15:22;;;;;;;15.50;4.47;;;7.20;95.00;;;;;;4368352;32;20212;-64
2021/03/12 10:17:49;;;;;;;21.00;4.60;;;7.10;94.90;;;;;;4362998;32;20318;-69
2021/03/12 10:20:27;;;;;;;19.40;4.67;;;7.10;95.20;;;;;;4366874;32;20209;-64
2021/03/12 10:22:56;;;;;;;16.70;4.90;;;7.30;95.10;;;;;;4368581;32;20211;-64
2021/03/12 10:25:26;;;;;;;18.40;5.57;;;7.40;95.00;;;;;;4372629;32;20187;-65
2021/03/12 10:27:54;;;;;;;24.97;5.77;;;7.70;94.80;;;;;;4373571;32;20251;-66
2021/03/12 10:30:22;;;;;;;22.17;5.53;;;7.80;94.40;;;;;;4364115;32;20184;-65
2021/03/12 10:32:51;;;;;;;23.17;6.60;;;8.00;94.10;;;;;;4369845;32;20179;-66
2021/03/12 10:35:27;;;;;;;27.23;6.77;;;8.20;93.50;;;;;;4373493;32;20622;-67
2021/03/12 10:37:55;;;;;;;26.03;6.20;;;8.40;93.60;;;;;;4373417;32;20697;-65
2021/03/12 10:40:22;;;;;;;21.17;5.83;;;8.60;92.90;;;;;;4369354;32;20692;-67
2021/03/12 10:42:49;;;;;;;26.33;6.03;;;8.80;92.90;;;;;;4370666;32;20160;-65
2021/03/12 10:45:31;;;;;;;20.73;5.40;;;8.90;92.00;;;;;;4360961;32;20157;-72
2021/03/12 10:48:01;;;;;;;14.30;5.43;;;9.20;91.70;;;;;;4358810;32;20200;-64
2021/03/12 10:50:30;;;;;;;12.60;4.57;;;9.10;90.90;;;;;;4361314;32;20478;-67
2021/03/12 10:53:11;;;;;;;21.27;6.00;;;9.30;91.00;;;;;;4360006;32;20176;-65
2021/03/12 10:55:40;;;;;;;19.30;5.83;;;9.80;90.90;;;;;;4356474;32;20260;-68
2021/03/12 10:58:25;;;;;;;16.47;5.07;;;10.10;88.70;;;;;;4360533;32;20165;-68
2021/03/12 11:01:10;;;;;;;18.43;5.97;;;10.10;87.70;;;;;;4357851;32;20176;-67
2021/03/12 11:03:38;;;;;;;21.53;5.03;;;9.80;88.30;;;;;;4357304;32;20208;-65
2021/03/12 11:06:05;;;;;;;18.93;4.53;;;9.60;89.30;;;;;;4362529;32;20213;-69
2021/03/12 11:08:32;;;;;;;19.90;4.90;;;9.40;89.40;;;;;;4361110;32;20175;-66
2021/03/12 11:10:59;;;;;;;24.63;5.10;;;9.60;89.80;;;;;;4360487;32;20632;-68
2021/03/12 11:13:26;;;;;;;18.53;4.60;;;9.60;88.70;;;;;;4361319;32;20190;-69
2021/03/12 11:15:52;;;;;;;15.83;4.33;;;9.70;89.00;;;;;;4357048;32;20501;-67
2021/03/12 11:18:20;;;;;;;20.07;5.70;;;9.50;88.50;;;;;;4361210;32;20613;-69
2021/03/12 11:20:47;;;;;;;12.37;3.90;;;9.40;89.50;;;;;;4359953;32;20164;-66
2021/03/12 11:23:13;;;;;;;17.30;5.30;;;9.20;89.20;;;;;;4353051;32;20734;-69
2021/03/12 11:25:40;;;;;;;14.03;4.00;;;9.20;90.00;;;;;;4353694;32;20172;-66
2021/03/12 11:28:10;;;;;;;17.87;5.00;;;9.00;90.20;;;;;;4354696;32;20648;-67
2021/03/12 11:30:36;;;;;;;14.70;5.07;;;9.20;90.70;;;;;;4354040;32;20228;-68
2021/03/12 11:33:03;;;;;;;20.27;4.47;;;9.20;90.30;;;;;;4355977;32;20190;-68
2021/03/12 11:35:30;;;;;;;19.77;5.60;;;9.40;90.40;;;;;;4354459;32;20230;-66
2021/03/12 11:37:57;;;;;;;21.60;4.27;;;9.80;90.20;;;;;;4354581;33;20191;-66
2021/03/12 11:40:23;;;;;;;17.83;5.07;;;10.20;88.60;;;;;;4353884;33;20463;-69
2021/03/12 11:42:50;;;;;;;20.33;4.57;;;10.20;87.60;;;;;;4357889;32;20179;-66
2021/03/12 11:45:18;;;;;;;20.10;5.50;;;9.70;89.70;;;;;;4368861;32;20208;-65
2021/03/12 11:47:45;;;;;;;20.63;5.00;;;9.30;91.30;;;;;;4369927;32;20200;-64
2021/03/12 11:50:15;;;;;;;15.63;5.60;;;9.00;92.10;;;;;;4369974;32;20238;-66
2021/03/12 11:52:41;;;;;;;22.03;5.03;;;9.00;92.40;;;;;;4367520;32;20168;-66
2021/03/12 11:55:09;;;;;;;20.60;6.30;;;8.90;92.00;;;;;;4369561;32;20619;-69
2021/03/12 11:57:36;;;;;;;24.20;6.17;;;9.00;91.80;;;;;;4371715;32;20201;-66
2021/03/12 12:00:05;;;;;;;15.97;5.47;;;9.10;91.70;;;;;;4363635;32;20211;-67
2021/03/12 12:02:31;;;;;;;19.33;6.20;;;9.20;91.40;;;;;;4368202;32;20207;-65
2021/03/12 12:04:58;;;;;;;14.60;4.93;;;9.00;90.90;;;;;;4369486;32;20236;-69
2021/03/12 12:07:24;;;;;;;16.10;6.07;;;8.90;90.70;;;;;;4370131;32;20481;-65
2021/03/12 12:09:51;;;;;;;14.47;5.30;;;8.80;91.50;;;;;;4370080;32;20192;-68
2021/03/12 12:12:19;;;;;;;15.60;5.23;;;8.90;91.10;;;;;;4364463;32;20581;-67
2021/03/12 12:14:46;;;;;;;21.37;4.77;;;9.10;90.60;;;;;;4373201;32;20164;-65
2021/03/12 12:17:14;;;;;;;18.73;4.53;;;9.30;90.10;;;;;;4371509;32;20573;-67
2021/03/12 12:19:41;;;;;;;13.17;4.17;;;9.30;89.90;;;;;;4368848;32;20168;-68
2021/03/12 12:22:10;;;;;;;17.83;3.90;;;9.40;87.80;;;;;;4367700;32;20164;-65
2021/03/12 12:24:36;;;;;;;17.17;4.57;;;9.50;86.70;;;;;;4371932;32;20144;-68
2021/03/12 12:27:03;;;;;;;14.00;4.37;;;9.30;87.50;;;;;;4368967;32;20495;-66
2021/03/12 12:29:30;;;;;;;11.97;4.50;;;9.40;87.50;;;;;;4368446;32;20161;-65
2021/03/12 12:31:56;;;;;;;11.30;4.23;;;9.50;86.80;;;;;;4369080;32;20179;-68
2021/03/12 12:34:23;;;;;;;13.40;3.47;;;9.70;86.10;;;;;;4370167;32;20198;-68
2021/03/12 12:36:49;;;;;;;11.03;3.73;;;9.90;86.20;;;;;;4371161;32;20161;-66
2021/03/12 12:39:17;;;;;;;10.27;3.33;;;9.90;84.60;;;;;;4369086;32;20290;-71
2021/03/12 12:41:45;;;;;;;17.67;3.90;;;9.90;84.10;;;;;;4371280;32;20157;-69
2021/03/12 12:44:13;;;;;;;10.43;3.80;;;9.90;84.80;;;;;;4360525;32;20208;-69
2021/03/12 12:46:41;;;;;;;12.47;3.13;;;9.80;86.20;;;;;;4354075;32;20234;-65
2021/03/12 12:49:09;;;;;;;13.50;3.60;;;9.80;85.00;;;;;;4355989;32;20168;-66
2021/03/12 12:51:35;;;;;;;14.50;4.30;;;9.60;85.10;;;;;;4352652;33;20239;-69
2021/03/12 12:54:03;;;;;;;12.70;3.73;;;9.30;87.30;;;;;;4352007;32;20196;-66